sensor_id;sensor_type;location;lat;lon;timestamp;pressure;altitude;pressure_sealevel;temperature;humidity
12471;BME280;36499;46.484;13.832;2022-08-14T00:00:44;93055.47;;;14.34;78.06
12471;BME280;36499;46.484;13.832;2022-08-14T00:03:20;93051.25;;;14.33;77.96
12471;BME280;36499;46.484;13.832;2022-08-14T00:05:48;93049.19;;;14.35;77.43
12471;BME280;36499;46.484;13.832;2022-08-14T00:08:15;93051.16;;;14.28;77.63
12471;BME280;36499;46.484;13.832;2022-08-14T00:10:43;93046.53;;;14.19;78.15
12471;BME280;36499;46.484;13.832;2022-08-14T00:13:11;93040.88;;;14.10;79.01
12471;BME280;36499;46.484;13.832;2022-08-14T00:15:42;93046.34;;;14.09;79.07
12471;BME280;36499;46.484;13.832;2022-08-14T00:18:16;93036.47;;;13.99;79.21
12471;BME280;36499;46.484;13.832;2022-08-14T00:20:43;93029.53;;;13.93;79.71
12471;BME280;36499;46.484;13.832;2022-08-14T00:23:13;93026.78;;;14.00;79.85
12471;BME280;36499;46.484;13.832;2022-08-14T00:25:42;93025.63;;;14.07;78.95
12471;BME280;36499;46.484;13.832;2022-08-14T00:28:12;93021.38;;;14.06;78.73
12471;BME280;36499;46.484;13.832;2022-08-14T00:30:40;93019.25;;;14.03;78.67
12471;BME280;36499;46.484;13.832;2022-08-14T00:33:07;93020.50;;;14.01;78.99
12471;BME280;36499;46.484;13.832;2022-08-14T00:35:36;93019.50;;;13.90;79.59
12471;BME280;36499;46.484;13.832;2022-08-14T00:38:03;93015.81;;;14.03;79.14
12471;BME280;36499;46.484;13.832;2022-08-14T00:40:30;93018.63;;;14.13;78.80
12471;BME280;36499;46.484;13.832;2022-08-14T00:42:57;93011.66;;;14.18;78.55
12471;BME280;36499;46.484;13.832;2022-08-14T00:45:24;93002.28;;;14.22;78.15
12471;BME280;36499;46.484;13.832;2022-08-14T00:47:52;93000.03;;;14.14;78.30
12471;BME280;36499;46.484;13.832;2022-08-14T00:50:21;93006.09;;;14.15;78.37
12471;BME280;36499;46.484;13.832;2022-08-14T00:52:51;93001.53;;;14.10;78.50
12471;BME280;36499;46.484;13.832;2022-08-14T00:55:19;92993.03;;;14.03;78.87
12471;BME280;36499;46.484;13.832;2022-08-14T00:57:48;92999.63;;;14.06;79.18
12471;BME280;36499;46.484;13.832;2022-08-14T01:00:36;92992.78;;;14.05;78.95
12471;BME280;36499;46.484;13.832;2022-08-14T01:03:05;92990.56;;;14.13;78.75
12471;BME280;36499;46.484;13.832;2022-08-14T01:05:34;92993.94;;;14.25;78.16
12471;BME280;36499;46.484;13.832;2022-08-14T01:08:03;92995.97;;;14.23;77.65
12471;BME280;36499;46.484;13.832;2022-08-14T01:10:30;92994.88;;;14.19;77.79
12471;BME280;36499;46.484;13.832;2022-08-14T01:13:20;92994.88;;;14.19;77.59
12471;BME280;36499;46.484;13.832;2022-08-14T01:15:52;92985.34;;;14.13;77.79
12471;BME280;36499;46.484;13.832;2022-08-14T01:18:20;92988.13;;;14.07;78.13
12471;BME280;36499;46.484;13.832;2022-08-14T01:21:07;92986.09;;;13.97;78.26
12471;BME280;36499;46.484;13.832;2022-08-14T01:23:40;92985.06;;;13.98;78.22
12471;BME280;36499;46.484;13.832;2022-08-14T01:26:08;92972.91;;;13.92;78.28
12471;BME280;36499;46.484;13.832;2022-08-14T01:28:38;92980.28;;;13.67;79.53
12471;BME280;36499;46.484;13.832;2022-08-14T01:31:08;92986.34;;;13.67;79.71
12471;BME280;36499;46.484;13.832;2022-08-14T01:33:39;92975.59;;;13.80;78.86
12471;BME280;36499;46.484;13.832;2022-08-14T01:36:10;92977.59;;;13.62;79.91
12471;BME280;36499;46.484;13.832;2022-08-14T01:38:41;92976.19;;;13.71;79.32
12471;BME280;36499;46.484;13.832;2022-08-14T01:41:14;92971.03;;;13.76;78.83
12471;BME280;36499;46.484;13.832;2022-08-14T01:43:45;92977.59;;;13.62;79.81
12471;BME280;36499;46.484;13.832;2022-08-14T01:46:15;92973.28;;;13.56;79.88
12471;BME280;36499;46.484;13.832;2022-08-14T01:48:44;92958.59;;;13.55;80.08
12471;BME280;36499;46.484;13.832;2022-08-14T01:51:14;92951.84;;;13.59;80.21
12471;BME280;36499;46.484;13.832;2022-08-14T01:53:46;92957.78;;;13.66;79.62
12471;BME280;36499;46.484;13.832;2022-08-14T01:56:16;92957.41;;;13.62;79.27
12471;BME280;36499;46.484;13.832;2022-08-14T01:58:44;92947.75;;;13.63;79.13
12471;BME280;36499;46.484;13.832;2022-08-14T02:01:14;92947.56;;;13.53;79.57
12471;BME280;36499;46.484;13.832;2022-08-14T02:03:43;92948.34;;;13.53;79.90
12471;BME280;36499;46.484;13.832;2022-08-14T02:06:11;92943.91;;;13.54;79.64
12471;BME280;36499;46.484;13.832;2022-08-14T02:08:40;92937.22;;;13.46;80.06
12471;BME280;36499;46.484;13.832;2022-08-14T02:11:10;92936.50;;;13.51;79.83
12471;BME280;36499;46.484;13.832;2022-08-14T02:13:52;92945.50;;;13.55;79.21
12471;BME280;36499;46.484;13.832;2022-08-14T02:16:23;92942.78;;;13.50;79.55
12471;BME280;36499;46.484;13.832;2022-08-14T02:18:54;92931.19;;;13.45;79.91
12471;BME280;36499;46.484;13.832;2022-08-14T02:21:22;92937.81;;;13.36;80.39
12471;BME280;36499;46.484;13.832;2022-08-14T02:23:52;92928.59;;;13.34;80.43
12471;BME280;36499;46.484;13.832;2022-08-14T02:26:24;92932.09;;;13.39;80.30
12471;BME280;36499;46.484;13.832;2022-08-14T02:28:57;92931.09;;;13.40;80.16
12471;BME280;36499;46.484;13.832;2022-08-14T02:31:27;92923.56;;;13.44;79.50
12471;BME280;36499;46.484;13.832;2022-08-14T02:33:58;92929.81;;;13.43;79.25
12471;BME280;36499;46.484;13.832;2022-08-14T02:36:26;92929.41;;;13.34;79.59
12471;BME280;36499;46.484;13.832;2022-08-14T02:38:53;92928.75;;;13.27;79.90
12471;BME280;36499;46.484;13.832;2022-08-14T02:41:21;92921.81;;;13.21;80.29
12471;BME280;36499;46.484;13.832;2022-08-14T02:43:50;92923.63;;;13.09;80.89
12471;BME280;36499;46.484;13.832;2022-08-14T02:46:17;92928.31;;;13.19;80.13
12471;BME280;36499;46.484;13.832;2022-08-14T02:48:44;92926.34;;;13.26;79.80
12471;BME280;36499;46.484;13.832;2022-08-14T02:51:13;92913.50;;;13.24;79.79
12471;BME280;36499;46.484;13.832;2022-08-14T02:53:44;92909.06;;;13.25;79.74
12471;BME280;36499;46.484;13.832;2022-08-14T02:56:14;92918.31;;;13.16;80.51
12471;BME280;36499;46.484;13.832;2022-08-14T02:58:46;92915.66;;;13.27;79.61
12471;BME280;36499;46.484;13.832;2022-08-14T03:01:16;92913.75;;;13.23;79.83
12471;BME280;36499;46.484;13.832;2022-08-14T03:03:45;92916.50;;;13.16;79.85
12471;BME280;36499;46.484;13.832;2022-08-14T03:06:14;92926.38;;;13.14;80.16
12471;BME280;36499;46.484;13.832;2022-08-14T03:08:42;92918.41;;;13.09;80.32
12471;BME280;36499;46.484;13.832;2022-08-14T03:11:12;92916.94;;;13.02;80.99
12471;BME280;36499;46.484;13.832;2022-08-14T03:13:43;92920.59;;;13.12;80.62
12471;BME280;36499;46.484;13.832;2022-08-14T03:16:15;92920.59;;;13.12;80.79
12471;BME280;36499;46.484;13.832;2022-08-14T03:18:44;92918.31;;;13.04;80.85
12471;BME280;36499;46.484;13.832;2022-08-14T03:21:15;92914.91;;;13.04;81.11
12471;BME280;36499;46.484;13.832;2022-08-14T03:23:46;92915.69;;;13.16;80.40
12471;BME280;36499;46.484;13.832;2022-08-14T03:26:16;92909.88;;;13.02;81.18
12471;BME280;36499;46.484;13.832;2022-08-14T03:28:49;92914.56;;;13.12;80.60
12471;BME280;36499;46.484;13.832;2022-08-14T03:31:18;92914.56;;;13.12;80.78
12471;BME280;36499;46.484;13.832;2022-08-14T03:33:48;92914.00;;;13.10;80.50
12471;BME280;36499;46.484;13.832;2022-08-14T03:36:18;92910.22;;;13.06;80.42
12471;BME280;36499;46.484;13.832;2022-08-14T03:38:50;92904.53;;;13.09;80.39
12471;BME280;36499;46.484;13.832;2022-08-14T03:41:21;92895.31;;;13.06;80.14
12471;BME280;36499;46.484;13.832;2022-08-14T03:43:53;92891.34;;;13.15;79.87
12471;BME280;36499;46.484;13.832;2022-08-14T03:46:21;92897.59;;;13.14;79.55
12471;BME280;36499;46.484;13.832;2022-08-14T03:48:49;92898.69;;;13.30;78.83
12471;BME280;36499;46.484;13.832;2022-08-14T03:51:16;92894.78;;;13.32;78.71
12471;BME280;36499;46.484;13.832;2022-08-14T03:53:45;92884.78;;;13.29;78.35
12471;BME280;36499;46.484;13.832;2022-08-14T03:56:15;92892.97;;;13.33;78.30
12471;BME280;36499;46.484;13.832;2022-08-14T03:58:47;92883.31;;;13.33;78.20
12471;BME280;36499;46.484;13.832;2022-08-14T04:01:19;92884.78;;;13.29;78.25
12471;BME280;36499;46.484;13.832;2022-08-14T04:03:50;92888.03;;;13.20;78.25
12471;BME280;36499;46.484;13.832;2022-08-14T04:06:18;92888.22;;;13.30;78.01
12471;BME280;36499;46.484;13.832;2022-08-14T04:08:47;92881.41;;;13.06;78.86
12471;BME280;36499;46.484;13.832;2022-08-14T04:11:17;92882.16;;;13.01;79.06
12471;BME280;36499;46.484;13.832;2022-08-14T04:13:45;92883.63;;;12.97;79.27
12471;BME280;36499;46.484;13.832;2022-08-14T04:16:19;92876.94;;;12.89;79.81
12471;BME280;36499;46.484;13.832;2022-08-14T04:18:51;92889.00;;;12.79;80.47
12471;BME280;36499;46.484;13.832;2022-08-14T04:21:20;92876.59;;;12.86;80.11
12471;BME280;36499;46.484;13.832;2022-08-14T04:23:51;92880.09;;;12.91;79.63
12471;BME280;36499;46.484;13.832;2022-08-14T04:26:19;92874.53;;;12.88;80.08
12471;BME280;36499;46.484;13.832;2022-08-14T04:28:48;92868.06;;;12.79;80.35
12471;BME280;36499;46.484;13.832;2022-08-14T04:31:20;92872.97;;;12.75;80.89
12471;BME280;36499;46.484;13.832;2022-08-14T04:33:47;92868.09;;;12.67;81.12
12471;BME280;36499;46.484;13.832;2022-08-14T04:36:14;92875.25;;;12.72;81.03
12471;BME280;36499;46.484;13.832;2022-08-14T04:38:42;92878.13;;;12.70;81.09
12471;BME280;36499;46.484;13.832;2022-08-14T04:41:26;92879.69;;;12.71;80.78
12471;BME280;36499;46.484;13.832;2022-08-14T04:44:13;92875.50;;;12.70;80.61
12471;BME280;36499;46.484;13.832;2022-08-14T04:46:42;92882.09;;;12.73;80.64
12471;BME280;36499;46.484;13.832;2022-08-14T04:49:31;92880.13;;;12.80;80.42
12471;BME280;36499;46.484;13.832;2022-08-14T04:51:58;92878.44;;;12.85;80.02
12471;BME280;36499;46.484;13.832;2022-08-14T04:54:28;92884.19;;;12.99;79.55
12471;BME280;36499;46.484;13.832;2022-08-14T04:56:56;92884.50;;;13.03;79.07
12471;BME280;36499;46.484;13.832;2022-08-14T04:59:24;92880.19;;;13.20;78.57
12471;BME280;36499;46.484;13.832;2022-08-14T05:01:52;92882.22;;;13.06;79.26
12471;BME280;36499;46.484;13.832;2022-08-14T05:04:20;92871.41;;;13.14;78.87
12471;BME280;36499;46.484;13.832;2022-08-14T05:06:50;92864.59;;;13.13;78.88
12471;BME280;36499;46.484;13.832;2022-08-14T05:09:18;92859.94;;;13.15;78.69
12471;BME280;36499;46.484;13.832;2022-08-14T05:11:45;92856.38;;;13.21;78.75
12471;BME280;36499;46.484;13.832;2022-08-14T05:14:12;92856.22;;;13.28;78.54
12471;BME280;36499;46.484;13.832;2022-08-14T05:16:40;92845.16;;;13.37;78.13
12471;BME280;36499;46.484;13.832;2022-08-14T05:19:08;92850.06;;;13.51;77.82
12471;BME280;36499;46.484;13.832;2022-08-14T05:21:39;92845.13;;;13.66;77.76
12471;BME280;36499;46.484;13.832;2022-08-14T05:24:06;92850.63;;;13.81;77.34
12471;BME280;36499;46.484;13.832;2022-08-14T05:26:36;92848.94;;;13.91;77.12
12471;BME280;36499;46.484;13.832;2022-08-14T05:29:06;92849.31;;;14.00;76.98
12471;BME280;36499;46.484;13.832;2022-08-14T05:31:35;92850.91;;;14.18;76.33
12471;BME280;36499;46.484;13.832;2022-08-14T05:34:05;92844.22;;;14.27;75.87
12471;BME280;36499;46.484;13.832;2022-08-14T05:36:34;92843.50;;;14.48;75.33
12471;BME280;36499;46.484;13.832;2022-08-14T05:39:03;92835.72;;;14.53;74.48
12471;BME280;36499;46.484;13.832;2022-08-14T05:41:30;92837.97;;;14.66;74.56
12471;BME280;36499;46.484;13.832;2022-08-14T05:43:59;92836.56;;;14.80;73.91
12471;BME280;36499;46.484;13.832;2022-08-14T05:46:27;92833.09;;;14.97;74.04
12471;BME280;36499;46.484;13.832;2022-08-14T05:48:57;92832.44;;;15.06;73.29
12471;BME280;36499;46.484;13.832;2022-08-14T05:51:26;92822.31;;;15.20;73.06
12471;BME280;36499;46.484;13.832;2022-08-14T05:53:55;92834.75;;;15.29;73.71
12471;BME280;36499;46.484;13.832;2022-08-14T05:56:24;92824.97;;;15.47;73.75
12471;BME280;36499;46.484;13.832;2022-08-14T05:58:52;92821.25;;;15.69;73.33
12471;BME280;36499;46.484;13.832;2022-08-14T06:01:20;92819.03;;;15.88;72.43
12471;BME280;36499;46.484;13.832;2022-08-14T06:03:47;92815.50;;;16.04;72.27
12471;BME280;36499;46.484;13.832;2022-08-14T06:06:16;92817.09;;;16.10;71.39
12471;BME280;36499;46.484;13.832;2022-08-14T06:08:44;92807.38;;;16.11;69.99
12471;BME280;36499;46.484;13.832;2022-08-14T06:11:13;92814.38;;;16.32;69.86
12471;BME280;36499;46.484;13.832;2022-08-14T06:13:42;92804.47;;;16.49;68.69
12471;BME280;36499;46.484;13.832;2022-08-14T06:16:09;92797.47;;;16.65;68.34
12471;BME280;36499;46.484;13.832;2022-08-14T06:18:36;92785.97;;;16.86;67.63
12471;BME280;36499;46.484;13.832;2022-08-14T06:21:05;92787.09;;;17.00;67.37
12471;BME280;36499;46.484;13.832;2022-08-14T06:23:32;92788.41;;;17.03;66.18
12471;BME280;36499;46.484;13.832;2022-08-14T06:26:00;92785.56;;;17.19;65.94
12471;BME280;36499;46.484;13.832;2022-08-14T06:28:29;92788.22;;;17.40;66.04
12471;BME280;36499;46.484;13.832;2022-08-14T06:30:56;92782.41;;;17.33;65.72
12471;BME280;36499;46.484;13.832;2022-08-14T06:33:24;92782.69;;;17.51;64.89
12471;BME280;36499;46.484;13.832;2022-08-14T06:35:51;92780.91;;;17.72;65.80
12471;BME280;36499;46.484;13.832;2022-08-14T06:38:21;92783.03;;;17.90;64.60
12471;BME280;36499;46.484;13.832;2022-08-14T06:40:50;92775.34;;;18.09;64.11
12471;BME280;36499;46.484;13.832;2022-08-14T06:43:19;92783.00;;;18.20;63.09
12471;BME280;36499;46.484;13.832;2022-08-14T06:45:49;92777.69;;;18.41;63.20
12471;BME280;36499;46.484;13.832;2022-08-14T06:48:20;92780.84;;;18.58;62.63
12471;BME280;36499;46.484;13.832;2022-08-14T06:50:50;92786.84;;;18.74;61.62
12471;BME280;36499;46.484;13.832;2022-08-14T06:53:17;92787.69;;;18.59;60.42
12471;BME280;36499;46.484;13.832;2022-08-14T06:55:46;92787.16;;;18.57;60.14
12471;BME280;36499;46.484;13.832;2022-08-14T06:58:15;92786.81;;;18.89;60.12
12471;BME280;36499;46.484;13.832;2022-08-14T07:00:44;92781.22;;;19.00;58.84
12471;BME280;36499;46.484;13.832;2022-08-14T07:03:33;92785.28;;;19.32;59.82
12471;BME280;36499;46.484;13.832;2022-08-14T07:06:18;92784.69;;;19.50;56.88
12471;BME280;36499;46.484;13.832;2022-08-14T07:08:46;92785.72;;;19.54;57.31
12471;BME280;36499;46.484;13.832;2022-08-14T07:11:13;92774.22;;;19.74;56.53
12471;BME280;36499;46.484;13.832;2022-08-14T07:13:40;92779.03;;;19.67;55.83
12471;BME280;36499;46.484;13.832;2022-08-14T07:16:08;92778.84;;;19.87;56.07
12471;BME280;36499;46.484;13.832;2022-08-14T07:18:39;92791.47;;;20.00;55.37
12471;BME280;36499;46.484;13.832;2022-08-14T07:21:08;92781.53;;;20.73;54.63
12471;BME280;36499;46.484;13.832;2022-08-14T07:23:36;92788.41;;;20.74;53.28
12471;BME280;36499;46.484;13.832;2022-08-14T07:26:05;92790.94;;;20.61;54.15
12471;BME280;36499;46.484;13.832;2022-08-14T07:28:35;92779.66;;;20.50;53.97
12471;BME280;36499;46.484;13.832;2022-08-14T07:31:07;92779.50;;;20.65;54.10
12471;BME280;36499;46.484;13.832;2022-08-14T07:33:41;92786.31;;;20.71;53.57
12471;BME280;36499;46.484;13.832;2022-08-14T07:36:12;92782.88;;;20.94;53.53
12471;BME280;36499;46.484;13.832;2022-08-14T07:38:41;92779.94;;;21.20;52.57
12471;BME280;36499;46.484;13.832;2022-08-14T07:41:09;92773.50;;;21.26;53.13
12471;BME280;36499;46.484;13.832;2022-08-14T07:43:39;92774.59;;;21.43;51.79
12471;BME280;36499;46.484;13.832;2022-08-14T07:46:06;92779.84;;;21.67;52.25
12471;BME280;36499;46.484;13.832;2022-08-14T07:48:39;92770.25;;;21.85;51.09
12471;BME280;36499;46.484;13.832;2022-08-14T07:51:08;92763.47;;;21.97;50.25
12471;BME280;36499;46.484;13.832;2022-08-14T07:53:37;92760.75;;;22.03;50.19
12471;BME280;36499;46.484;13.832;2022-08-14T07:56:04;92757.84;;;22.18;48.61
12471;BME280;36499;46.484;13.832;2022-08-14T07:58:31;92761.25;;;22.51;47.94
12471;BME280;36499;46.484;13.832;2022-08-14T08:00:59;92754.72;;;22.57;47.10
12471;BME280;36499;46.484;13.832;2022-08-14T08:03:28;92760.69;;;22.67;46.68
12471;BME280;36499;46.484;13.832;2022-08-14T08:06:01;92764.84;;;22.73;46.41
12471;BME280;36499;46.484;13.832;2022-08-14T08:08:30;92758.72;;;22.73;45.27
12471;BME280;36499;46.484;13.832;2022-08-14T08:11:00;92753.81;;;22.93;45.22
12471;BME280;36499;46.484;13.832;2022-08-14T08:13:29;92747.81;;;23.02;44.73
12471;BME280;36499;46.484;13.832;2022-08-14T08:15:58;92752.63;;;23.00;42.99
12471;BME280;36499;46.484;13.832;2022-08-14T08:18:28;92739.75;;;23.29;44.23
12471;BME280;36499;46.484;13.832;2022-08-14T08:20:56;92735.03;;;23.53;43.84
12471;BME280;36499;46.484;13.832;2022-08-14T08:23:24;92729.28;;;23.60;43.61
12471;BME280;36499;46.484;13.832;2022-08-14T08:25:54;92729.28;;;23.60;42.45
12471;BME280;36499;46.484;13.832;2022-08-14T08:28:25;92731.28;;;23.54;42.17
12471;BME280;36499;46.484;13.832;2022-08-14T08:30:56;92724.13;;;23.63;42.84
12471;BME280;36499;46.484;13.832;2022-08-14T08:33:26;92729.78;;;23.84;42.85
12471;BME280;36499;46.484;13.832;2022-08-14T08:36:04;92721.97;;;23.87;40.72
12471;BME280;36499;46.484;13.832;2022-08-14T08:38:33;92725.06;;;24.03;41.81
12471;BME280;36499;46.484;13.832;2022-08-14T08:41:01;92731.81;;;24.23;41.00
12471;BME280;36499;46.484;13.832;2022-08-14T08:43:31;92717.75;;;24.31;40.66
12471;BME280;36499;46.484;13.832;2022-08-14T08:46:01;92717.97;;;24.21;40.38
12471;BME280;36499;46.484;13.832;2022-08-14T08:48:41;92712.13;;;24.41;39.11
12471;BME280;36499;46.484;13.832;2022-08-14T08:51:20;92704.66;;;24.52;39.34
12471;BME280;36499;46.484;13.832;2022-08-14T08:53:59;92709.91;;;24.74;38.84
12471;BME280;36499;46.484;13.832;2022-08-14T08:56:41;92710.31;;;24.90;37.79
12471;BME280;36499;46.484;13.832;2022-08-14T08:59:20;92707.09;;;25.10;38.33
12471;BME280;36499;46.484;13.832;2022-08-14T09:01:50;92704.09;;;25.03;39.60
12471;BME280;36499;46.484;13.832;2022-08-14T09:04:19;92709.09;;;25.04;38.35
12471;BME280;36499;46.484;13.832;2022-08-14T09:06:48;92706.78;;;25.20;39.23
12471;BME280;36499;46.484;13.832;2022-08-14T09:09:26;92700.69;;;25.37;38.18
12471;BME280;36499;46.484;13.832;2022-08-14T09:11:56;92699.91;;;25.36;38.10
12471;BME280;36499;46.484;13.832;2022-08-14T09:14:26;92694.28;;;25.55;35.82
12471;BME280;36499;46.484;13.832;2022-08-14T09:16:55;92697.13;;;25.75;34.73
12471;BME280;36499;46.484;13.832;2022-08-14T09:19:24;92691.09;;;25.96;35.44
12471;BME280;36499;46.484;13.832;2022-08-14T09:21:52;92693.59;;;26.35;35.74
12471;BME280;36499;46.484;13.832;2022-08-14T09:24:20;92694.22;;;26.32;34.07
12471;BME280;36499;46.484;13.832;2022-08-14T09:26:49;92697.00;;;26.44;32.09
12471;BME280;36499;46.484;13.832;2022-08-14T09:29:18;92695.00;;;26.33;34.73
12471;BME280;36499;46.484;13.832;2022-08-14T09:31:59;92695.16;;;26.36;34.57
12471;BME280;36499;46.484;13.832;2022-08-14T09:34:55;92694.28;;;26.61;32.89
12471;BME280;36499;46.484;13.832;2022-08-14T09:37:36;92686.81;;;26.76;32.52
12471;BME280;36499;46.484;13.832;2022-08-14T09:40:20;92685.84;;;26.80;31.63
12471;BME280;36499;46.484;13.832;2022-08-14T09:43:04;92690.28;;;26.85;31.43
12471;BME280;36499;46.484;13.832;2022-08-14T09:45:43;92687.44;;;26.90;31.48
12471;BME280;36499;46.484;13.832;2022-08-14T09:48:16;92682.25;;;26.85;31.16
12471;BME280;36499;46.484;13.832;2022-08-14T09:50:46;92688.84;;;26.87;30.19
12471;BME280;36499;46.484;13.832;2022-08-14T09:53:17;92680.16;;;27.19;31.25
12471;BME280;36499;46.484;13.832;2022-08-14T09:55:57;92680.66;;;27.42;33.38
12471;BME280;36499;46.484;13.832;2022-08-14T09:58:37;92675.56;;;27.70;33.47
12471;BME280;36499;46.484;13.832;2022-08-14T10:01:11;92663.06;;;27.74;32.71
12471;BME280;36499;46.484;13.832;2022-08-14T10:03:48;92661.28;;;27.99;32.34
12471;BME280;36499;46.484;13.832;2022-08-14T10:06:19;92657.69;;;27.95;30.61
12471;BME280;36499;46.484;13.832;2022-08-14T10:08:50;92652.09;;;28.21;32.03
12471;BME280;36499;46.484;13.832;2022-08-14T10:11:20;92648.78;;;28.03;30.46
12471;BME280;36499;46.484;13.832;2022-08-14T10:13:52;92641.94;;;27.93;31.39
12471;BME280;36499;46.484;13.832;2022-08-14T10:16:21;92645.28;;;27.90;31.66
12471;BME280;36499;46.484;13.832;2022-08-14T10:19:00;92636.47;;;28.23;31.24
12471;BME280;36499;46.484;13.832;2022-08-14T10:21:28;92641.03;;;28.22;30.06
12471;BME280;36499;46.484;13.832;2022-08-14T10:23:55;92642.88;;;28.54;29.94
12471;BME280;36499;46.484;13.832;2022-08-14T10:26:22;92640.97;;;28.55;28.80
12471;BME280;36499;46.484;13.832;2022-08-14T10:28:52;92636.59;;;28.50;28.88
12471;BME280;36499;46.484;13.832;2022-08-14T10:31:24;92637.06;;;28.52;28.36
12471;BME280;36499;46.484;13.832;2022-08-14T10:34:00;92624.41;;;28.29;29.42
12471;BME280;36499;46.484;13.832;2022-08-14T10:36:30;92624.44;;;28.65;32.03
12471;BME280;36499;46.484;13.832;2022-08-14T10:39:01;92629.47;;;28.67;27.57
12471;BME280;36499;46.484;13.832;2022-08-14T10:41:38;92627.34;;;28.84;27.92
12471;BME280;36499;46.484;13.832;2022-08-14T10:44:11;92628.25;;;29.00;29.09
12471;BME280;36499;46.484;13.832;2022-08-14T10:46:43;92631.13;;;29.20;28.78
12471;BME280;36499;46.484;13.832;2022-08-14T10:49:21;92634.84;;;29.27;30.94
12471;BME280;36499;46.484;13.832;2022-08-14T10:52:02;92616.50;;;29.05;29.49
12471;BME280;36499;46.484;13.832;2022-08-14T10:54:36;92630.03;;;29.08;32.33
12471;BME280;36499;46.484;13.832;2022-08-14T10:57:16;92619.72;;;29.23;28.19
12471;BME280;36499;46.484;13.832;2022-08-14T10:59:49;92621.63;;;29.34;31.02
12471;BME280;36499;46.484;13.832;2022-08-14T11:02:19;92613.13;;;29.60;31.28
12471;BME280;36499;46.484;13.832;2022-08-14T11:04:58;92611.88;;;29.70;33.10
12471;BME280;36499;46.484;13.832;2022-08-14T11:07:26;92607.56;;;29.81;34.41
12471;BME280;36499;46.484;13.832;2022-08-14T11:09:55;92612.75;;;29.74;30.57
12471;BME280;36499;46.484;13.832;2022-08-14T11:12:24;92612.66;;;29.42;30.59
12471;BME280;36499;46.484;13.832;2022-08-14T11:14:55;92606.56;;;28.93;30.93
12471;BME280;36499;46.484;13.832;2022-08-14T11:17:25;92613.50;;;28.70;31.04
12471;BME280;36499;46.484;13.832;2022-08-14T11:19:58;92600.41;;;28.81;31.53
12471;BME280;36499;46.484;13.832;2022-08-14T11:22:27;92599.97;;;28.79;31.67
12471;BME280;36499;46.484;13.832;2022-08-14T11:25:03;92602.56;;;28.75;34.08
12471;BME280;36499;46.484;13.832;2022-08-14T11:27:32;92600.78;;;28.79;31.97
12471;BME280;36499;46.484;13.832;2022-08-14T11:30:06;92599.72;;;28.59;32.10
12471;BME280;36499;46.484;13.832;2022-08-14T11:32:38;92600.84;;;28.34;32.24
12471;BME280;36499;46.484;13.832;2022-08-14T11:35:06;92598.81;;;28.43;33.20
12471;BME280;36499;46.484;13.832;2022-08-14T11:37:37;92597.03;;;28.35;32.45
12471;BME280;36499;46.484;13.832;2022-08-14T11:40:15;92594.31;;;28.23;32.31
12471;BME280;36499;46.484;13.832;2022-08-14T11:42:46;92599.09;;;28.05;33.93
12471;BME280;36499;46.484;13.832;2022-08-14T11:45:15;92598.97;;;28.02;34.46
12471;BME280;36499;46.484;13.832;2022-08-14T11:47:43;92598.25;;;27.93;34.96
12471;BME280;36499;46.484;13.832;2022-08-14T11:50:16;92587.19;;;27.82;34.27
12471;BME280;36499;46.484;13.832;2022-08-14T11:52:45;92593.28;;;27.71;35.01
12471;BME280;36499;46.484;13.832;2022-08-14T11:55:13;92594.75;;;27.68;35.90
12471;BME280;36499;46.484;13.832;2022-08-14T11:57:42;92593.72;;;27.60;34.63
12471;BME280;36499;46.484;13.832;2022-08-14T12:00:13;92585.44;;;27.53;35.20
12471;BME280;36499;46.484;13.832;2022-08-14T12:02:57;92580.59;;;27.47;35.14
12471;BME280;36499;46.484;13.832;2022-08-14T12:05:32;92579.31;;;27.44;36.33
12471;BME280;36499;46.484;13.832;2022-08-14T12:08:02;92572.94;;;27.37;35.09
12471;BME280;36499;46.484;13.832;2022-08-14T12:10:32;92577.06;;;27.34;36.05
12471;BME280;36499;46.484;13.832;2022-08-14T12:13:11;92573.47;;;27.30;37.52
12471;BME280;36499;46.484;13.832;2022-08-14T12:15:39;92577.91;;;27.26;36.93
12471;BME280;36499;46.484;13.832;2022-08-14T12:18:09;92571.09;;;26.87;37.10
12471;BME280;36499;46.484;13.832;2022-08-14T12:20:40;92575.91;;;26.73;39.86
12471;BME280;36499;46.484;13.832;2022-08-14T12:23:22;92570.31;;;26.87;40.57
12471;BME280;36499;46.484;13.832;2022-08-14T12:26:02;92560.28;;;27.04;42.83
12471;BME280;36499;46.484;13.832;2022-08-14T12:28:29;92563.69;;;26.93;45.41
12471;BME280;36499;46.484;13.832;2022-08-14T12:30:56;92560.94;;;26.72;45.45
12471;BME280;36499;46.484;13.832;2022-08-14T12:33:28;92573.13;;;26.61;44.70
12471;BME280;36499;46.484;13.832;2022-08-14T12:36:00;92565.81;;;26.49;45.06
12471;BME280;36499;46.484;13.832;2022-08-14T12:38:33;92562.72;;;26.39;45.56
12471;BME280;36499;46.484;13.832;2022-08-14T12:41:03;92570.63;;;26.18;43.55
12471;BME280;36499;46.484;13.832;2022-08-14T12:43:31;92569.56;;;26.19;45.54
12471;BME280;36499;46.484;13.832;2022-08-14T12:45:59;92578.84;;;26.13;46.96
12471;BME280;36499;46.484;13.832;2022-08-14T12:48:28;92572.56;;;26.09;48.00
12471;BME280;36499;46.484;13.832;2022-08-14T12:50:56;92568.03;;;26.01;48.30
12471;BME280;36499;46.484;13.832;2022-08-14T12:53:34;92574.84;;;25.90;48.20
12471;BME280;36499;46.484;13.832;2022-08-14T12:56:03;92569.50;;;25.90;47.79
12471;BME280;36499;46.484;13.832;2022-08-14T12:58:33;92563.53;;;26.31;50.41
12471;BME280;36499;46.484;13.832;2022-08-14T13:01:00;92555.25;;;26.53;46.14
12471;BME280;36499;46.484;13.832;2022-08-14T13:03:30;92543.41;;;27.25;48.38
12471;BME280;36499;46.484;13.832;2022-08-14T13:05:57;92548.66;;;27.75;48.64
12471;BME280;36499;46.484;13.832;2022-08-14T13:08:25;92551.88;;;28.25;47.20